Time;durP1;ratioP1;P1;durP2;ratioP2;P2;SDS_P1;SDS_P2;PMS_P1;PMS_P2;Temp;Humidity;BMP_temperature;BMP_pressure;BME280_temperature;BME280_humidity;BME280_pressure;Samples;Min_cycle;Max_cycle;Signal;HPM_P1;HPM_P2
2024/03/16 00:02:14;;;;;;;4.77;3.70;;;9.90;99.90;;;;;;5054591;28;20175;-74
2024/03/16 00:04:42;;;;;;;3.60;3.40;;;9.90;99.90;;;;;;5054525;28;20198;-74
2024/03/16 00:07:09;;;;;;;3.90;3.60;;;9.80;99.90;;;;;;5054582;28;20187;-73
2024/03/16 00:09:34;;;;;;;4.87;3.77;;;9.80;99.90;;;;;;5054825;28;20179;-73
2024/03/16 00:12:00;;;;;;;3.50;3.30;;;9.70;99.90;;;;;;5054628;28;20174;-74
2024/03/16 00:14:25;;;;;;;3.80;3.50;;;9.60;99.90;;;;;;5054377;28;20264;-73
2024/03/16 00:16:51;;;;;;;4.27;3.60;;;9.60;99.90;;;;;;5054249;28;20214;-74
2024/03/16 00:19:17;;;;;;;4.17;3.77;;;9.60;99.90;;;;;;5054561;28;20206;-74
2024/03/16 00:21:43;;;;;;;4.23;3.83;;;9.50;99.90;;;;;;5054304;28;20257;-74
2024/03/16 00:24:10;;;;;;;3.93;3.63;;;9.50;99.90;;;;;;5053981;28;20179;-74
2024/03/16 00:26:36;;;;;;;3.90;3.60;;;9.50;99.90;;;;;;5054582;28;20197;-74
2024/03/16 00:29:07;;;;;;;4.20;3.90;;;9.50;99.90;;;;;;5053002;28;20183;-74
2024/03/16 00:31:33;;;;;;;6.37;3.70;;;9.50;99.90;;;;;;5054084;28;20561;-73
2024/03/16 00:33:59;;;;;;;5.93;3.83;;;9.60;99.90;;;;;;5053964;28;20193;-76
2024/03/16 00:36:24;;;;;;;5.03;3.87;;;9.60;99.90;;;;;;5054078;28;20206;-75
2024/03/16 00:38:50;;;;;;;4.10;3.77;;;9.60;99.90;;;;;;5054527;28;20174;-74
2024/03/16 00:41:17;;;;;;;3.70;3.43;;;9.60;99.90;;;;;;5054285;28;20240;-74
2024/03/16 00:43:43;;;;;;;5.40;3.60;;;9.60;99.90;;;;;;5054003;28;20179;-74
2024/03/16 00:46:09;;;;;;;3.83;3.43;;;9.60;99.90;;;;;;5053732;28;20181;-74
2024/03/16 00:48:35;;;;;;;4.23;3.80;;;9.60;99.90;;;;;;5054589;28;20257;-74
2024/03/16 00:51:01;;;;;;;3.90;3.60;;;9.70;99.90;;;;;;5054008;28;20297;-74
2024/03/16 00:53:26;;;;;;;4.17;3.67;;;9.70;99.90;;;;;;5053565;28;20178;-73
2024/03/16 00:55:52;;;;;;;4.00;3.70;;;9.70;99.90;;;;;;5053575;28;20607;-74
2024/03/16 00:58:17;;;;;;;3.87;3.47;;;9.70;99.90;;;;;;5053751;28;20175;-74
2024/03/16 01:00:43;;;;;;;4.17;3.77;;;9.80;99.90;;;;;;5053682;28;20599;-74
2024/03/16 01:03:09;;;;;;;4.73;3.73;;;9.80;99.90;;;;;;5053604;28;20171;-74
2024/03/16 01:05:34;;;;;;;3.73;3.43;;;9.80;99.90;;;;;;5054131;28;20179;-74
2024/03/16 01:08:00;;;;;;;3.80;3.50;;;9.90;99.90;;;;;;5053920;28;20174;-74
2024/03/16 01:10:26;;;;;;;3.77;3.40;;;9.80;99.90;;;;;;5053727;28;20720;-74
2024/03/16 01:12:51;;;;;;;3.83;3.47;;;9.80;99.90;;;;;;5053478;28;20242;-75
2024/03/16 01:15:17;;;;;;;4.10;3.80;;;9.90;99.90;;;;;;5053132;28;20197;-74
2024/03/16 01:17:43;;;;;;;4.07;3.67;;;9.80;99.90;;;;;;5052928;28;20210;-74
2024/03/16 01:20:09;;;;;;;3.80;3.50;;;9.80;99.90;;;;;;5053337;28;20220;-74
2024/03/16 01:22:35;;;;;;;3.80;3.50;;;9.80;99.90;;;;;;5053122;28;20258;-74
2024/03/16 01:25:01;;;;;;;3.90;3.50;;;9.80;99.90;;;;;;5053156;28;20186;-74
2024/03/16 01:27:27;;;;;;;4.10;3.27;;;9.90;99.90;;;;;;5053131;28;20183;-75
2024/03/16 01:29:53;;;;;;;5.03;3.33;;;9.90;99.90;;;;;;5053018;28;20282;-75
2024/03/16 01:32:18;;;;;;;4.77;3.63;;;9.90;99.90;;;;;;5052777;28;20252;-75
2024/03/16 01:34:44;;;;;;;5.77;3.40;;;10.00;99.90;;;;;;5052691;28;20182;-74
2024/03/16 01:37:13;;;;;;;3.53;3.33;;;10.00;99.90;;;;;;5052656;28;20621;-74
2024/03/16 01:39:39;;;;;;;3.47;3.27;;;10.00;99.90;;;;;;5052764;28;20175;-74
2024/03/16 01:42:06;;;;;;;4.13;3.30;;;10.00;99.90;;;;;;5052318;28;20236;-74
2024/03/16 01:44:32;;;;;;;4.00;3.40;;;9.90;99.90;;;;;;5051478;28;20181;-74
2024/03/16 01:46:58;;;;;;;4.10;3.33;;;9.90;99.90;;;;;;5052830;28;20245;-74
2024/03/16 01:49:23;;;;;;;6.03;3.90;;;9.90;99.90;;;;;;5052573;28;20174;-73
2024/03/16 01:51:49;;;;;;;3.90;3.47;;;9.80;99.90;;;;;;5052570;28;20187;-74
2024/03/16 01:54:14;;;;;;;5.83;4.10;;;9.80;99.90;;;;;;5052746;28;20174;-74
2024/03/16 01:56:40;;;;;;;3.97;3.70;;;9.80;99.90;;;;;;5052750;28;20206;-75
2024/03/16 01:59:06;;;;;;;3.70;3.47;;;9.80;99.90;;;;;;5052281;28;20219;-74
2024/03/16 02:01:31;;;;;;;4.47;3.63;;;9.80;99.90;;;;;;5052416;28;20182;-75
2024/03/16 02:03:57;;;;;;;7.30;4.13;;;9.80;99.90;;;;;;5051737;28;20179;-75
2024/03/16 02:06:28;;;;;;;5.57;3.73;;;9.80;99.90;;;;;;5052261;28;20194;-75
2024/03/16 02:08:54;;;;;;;3.97;3.67;;;9.80;99.90;;;;;;5052141;28;20182;-74
2024/03/16 02:11:21;;;;;;;4.33;3.50;;;9.90;99.90;;;;;;5052197;28;20199;-73
2024/03/16 02:13:48;;;;;;;4.23;3.97;;;10.00;99.90;;;;;;5052446;28;20258;-73
2024/03/16 02:16:13;;;;;;;5.90;3.67;;;10.00;99.90;;;;;;5052085;28;20332;-75
2024/03/16 02:18:39;;;;;;;4.27;3.83;;;10.10;99.90;;;;;;5052256;28;20249;-74
2024/03/16 02:21:09;;;;;;;10.07;4.33;;;10.10;99.90;;;;;;5052144;28;20581;-74
2024/03/16 02:23:35;;;;;;;4.40;4.00;;;10.20;99.90;;;;;;5051897;28;20167;-74
2024/03/16 02:26:01;;;;;;;5.90;3.80;;;10.20;99.90;;;;;;5052010;28;20192;-75
2024/03/16 02:28:27;;;;;;;5.77;4.30;;;10.20;99.90;;;;;;5052108;28;20256;-74
2024/03/16 02:30:52;;;;;;;5.67;3.90;;;10.20;99.90;;;;;;5052007;28;20665;-75
2024/03/16 02:33:18;;;;;;;3.90;3.60;;;10.20;99.90;;;;;;5051889;28;20663;-74
2024/03/16 02:35:43;;;;;;;6.73;3.80;;;10.20;99.90;;;;;;5051672;28;20207;-74
2024/03/16 02:38:09;;;;;;;6.03;4.10;;;10.20;99.90;;;;;;5052108;28;20675;-74
2024/03/16 02:40:36;;;;;;;4.53;4.13;;;10.20;99.90;;;;;;5051922;28;20244;-74
2024/03/16 02:43:03;;;;;;;4.30;3.90;;;10.20;99.90;;;;;;5051762;28;20225;-74
2024/03/16 02:45:28;;;;;;;8.57;4.30;;;10.20;99.90;;;;;;5051158;28;20523;-74
2024/03/16 02:47:54;;;;;;;8.93;4.93;;;10.20;99.90;;;;;;5051620;28;20258;-75
2024/03/16 02:50:19;;;;;;;6.97;4.37;;;10.20;99.90;;;;;;5051709;28;20201;-74
2024/03/16 02:52:45;;;;;;;7.63;4.43;;;10.20;99.90;;;;;;5051783;28;20745;-74
2024/03/16 02:55:11;;;;;;;5.37;4.60;;;10.20;99.90;;;;;;5051101;28;20179;-74
2024/03/16 02:57:37;;;;;;;4.60;4.07;;;10.30;99.90;;;;;;5051715;28;20684;-74
2024/03/16 03:00:10;;;;;;;6.70;4.33;;;10.30;99.90;;;;;;5051425;28;20187;-74
2024/03/16 03:02:36;;;;;;;5.67;4.33;;;10.40;99.90;;;;;;5051535;28;20613;-73
2024/03/16 03:05:03;;;;;;;6.33;4.37;;;10.40;99.90;;;;;;5051375;28;20175;-75
2024/03/16 03:07:29;;;;;;;4.50;4.10;;;10.40;99.90;;;;;;5050074;28;20522;-75
2024/03/16 03:09:54;;;;;;;6.97;4.33;;;10.50;99.90;;;;;;5051449;28;20198;-73
2024/03/16 03:12:20;;;;;;;9.63;4.30;;;10.50;99.90;;;;;;5051348;28;20183;-73
2024/03/16 03:14:46;;;;;;;8.07;4.40;;;10.50;99.90;;;;;;5051194;28;20250;-74
2024/03/16 03:17:12;;;;;;;5.73;4.50;;;10.50;99.90;;;;;;5049061;28;20210;-74
2024/03/16 03:19:37;;;;;;;5.57;4.23;;;10.60;99.90;;;;;;5051353;28;20170;-74
2024/03/16 03:22:03;;;;;;;7.73;5.23;;;10.60;99.90;;;;;;5051026;28;20206;-74
2024/03/16 03:24:28;;;;;;;5.73;4.77;;;10.60;99.90;;;;;;5050990;28;20519;-74
2024/03/16 03:26:54;;;;;;;6.10;5.50;;;10.60;99.90;;;;;;5051531;28;20190;-75
2024/03/16 03:29:20;;;;;;;6.70;5.37;;;10.60;99.90;;;;;;5051212;28;20612;-74
2024/03/16 03:31:45;;;;;;;10.30;5.80;;;10.60;99.90;;;;;;5051196;28;20210;-75
2024/03/16 03:34:11;;;;;;;7.23;5.30;;;10.60;99.90;;;;;;5051206;28;20202;-74
2024/03/16 03:36:43;;;;;;;10.73;5.57;;;10.60;99.90;;;;;;5051430;28;20289;-74
2024/03/16 03:39:11;;;;;;;7.40;5.43;;;10.70;99.90;;;;;;5051632;28;20174;-75
2024/03/16 03:41:36;;;;;;;6.23;5.40;;;10.80;99.90;;;;;;5051577;28;20189;-74
2024/03/16 03:44:19;;;;;;;7.33;5.53;;;10.80;99.90;;;;;;5051180;28;20175;-73
2024/03/16 03:46:50;;;;;;;6.60;5.57;;;10.80;99.90;;;;;;5051418;28;20585;-74
2024/03/16 03:49:26;;;;;;;6.37;5.77;;;10.80;99.90;;;;;;5051041;28;20258;-74
2024/03/16 03:51:57;;;;;;;6.00;5.43;;;10.80;99.90;;;;;;5051174;28;20257;-74
2024/03/16 03:54:23;;;;;;;6.97;6.37;;;10.80;99.90;;;;;;5050765;28;20167;-75
2024/03/16 03:56:48;;;;;;;7.17;5.60;;;10.80;99.90;;;;;;5051424;28;20202;-74
2024/03/16 03:59:14;;;;;;;8.63;6.17;;;10.90;99.90;;;;;;5051507;28;20231;-73
2024/03/16 04:01:39;;;;;;;7.03;6.07;;;11.00;99.90;;;;;;5051058;28;20195;-74
2024/03/16 04:04:05;;;;;;;8.77;6.87;;;11.00;99.90;;;;;;5050772;28;20179;-75
2024/03/16 04:06:31;;;;;;;7.23;6.27;;;10.90;99.90;;;;;;5051194;28;20254;-75
2024/03/16 04:08:57;;;;;;;8.87;6.33;;;11.00;99.90;;;;;;5051136;28;20175;-74
2024/03/16 04:11:22;;;;;;;9.73;6.40;;;11.00;99.90;;;;;;5051129;28;20679;-74
2024/03/16 04:13:48;;;;;;;7.30;6.43;;;11.00;99.90;;;;;;5050949;28;20190;-74
2024/03/16 04:16:14;;;;;;;13.53;7.27;;;10.90;99.90;;;;;;5050908;28;20668;-75
2024/03/16 04:18:40;;;;;;;10.13;6.40;;;10.90;99.90;;;;;;5050958;28;20167;-74
2024/03/16 04:21:07;;;;;;;7.80;6.23;;;10.90;99.90;;;;;;5051062;28;20187;-75
2024/03/16 04:23:33;;;;;;;8.97;6.80;;;10.80;99.90;;;;;;5051336;28;20526;-73
2024/03/16 04:25:58;;;;;;;12.80;6.87;;;10.90;99.90;;;;;;5050759;28;20179;-74
2024/03/16 04:28:24;;;;;;;8.47;6.47;;;10.90;99.90;;;;;;5052467;28;20250;-74
2024/03/16 04:30:50;;;;;;;13.30;7.03;;;10.90;99.90;;;;;;5054434;28;20680;-74
2024/03/16 04:33:18;;;;;;;10.37;7.63;;;10.90;99.90;;;;;;5054284;28;20186;-74
2024/03/16 04:35:46;;;;;;;6.80;6.20;;;10.80;99.90;;;;;;5054237;28;20225;-74
2024/03/16 04:38:13;;;;;;;9.83;6.93;;;10.90;99.90;;;;;;5053495;28;20724;-74
2024/03/16 04:40:38;;;;;;;10.67;6.60;;;10.90;99.90;;;;;;5054696;28;20182;-75
2024/03/16 04:43:04;;;;;;;11.33;7.47;;;10.80;99.90;;;;;;5054625;28;20174;-75
2024/03/16 04:45:30;;;;;;;10.87;7.27;;;10.80;99.90;;;;;;5054328;28;20194;-74
2024/03/16 04:47:56;;;;;;;11.03;7.33;;;10.70;99.90;;;;;;5054505;28;20201;-76
2024/03/16 04:50:22;;;;;;;8.13;7.30;;;10.70;99.90;;;;;;5054343;28;20186;-74
2024/03/16 04:52:47;;;;;;;10.73;7.37;;;10.70;99.90;;;;;;5054459;28;20648;-74
2024/03/16 04:55:13;;;;;;;12.10;7.23;;;10.70;99.90;;;;;;5054788;28;20171;-74
2024/03/16 04:57:39;;;;;;;9.37;7.00;;;10.60;99.90;;;;;;5054299;28;20206;-74
2024/03/16 05:00:05;;;;;;;8.00;7.20;;;10.60;99.90;;;;;;5054044;28;20667;-75
2024/03/16 05:02:31;;;;;;;14.13;6.97;;;10.50;99.90;;;;;;5055321;28;20175;-75
2024/03/16 05:04:56;;;;;;;11.67;7.50;;;10.50;99.90;;;;;;5057695;28;20174;-74
2024/03/16 05:07:22;;;;;;;11.20;7.40;;;10.50;99.90;;;;;;5056429;28;20178;-75
2024/03/16 05:09:48;;;;;;;11.10;7.40;;;10.60;99.90;;;;;;5056691;28;20558;-75
2024/03/16 05:12:13;;;;;;;11.17;7.27;;;10.60;99.90;;;;;;5055041;28;20179;-74
2024/03/16 05:14:39;;;;;;;12.13;8.13;;;10.50;99.90;;;;;;5053675;28;20205;-73
2024/03/16 05:17:04;;;;;;;9.40;7.33;;;10.60;99.90;;;;;;5053627;28;20203;-74
2024/03/16 05:19:30;;;;;;;9.17;8.03;;;10.50;99.90;;;;;;5053370;28;20656;-74
2024/03/16 05:21:55;;;;;;;11.70;8.10;;;10.50;99.90;;;;;;5053696;28;20158;-74
2024/03/16 05:24:21;;;;;;;10.20;8.67;;;10.50;99.90;;;;;;5053110;28;20224;-75
2024/03/16 05:26:47;;;;;;;10.30;8.00;;;10.50;99.90;;;;;;5053155;28;20198;-73
2024/03/16 05:29:14;;;;;;;11.47;8.67;;;10.50;99.90;;;;;;5053251;28;20170;-74
2024/03/16 05:31:54;;;;;;;10.37;8.53;;;10.50;99.90;;;;;;5052949;28;20703;-73
2024/03/16 05:34:21;;;;;;;15.40;9.07;;;10.50;99.90;;;;;;5052836;28;20175;-73
2024/03/16 05:36:46;;;;;;;9.67;8.57;;;10.50;99.90;;;;;;5053165;28;20233;-73
2024/03/16 05:39:14;;;;;;;12.23;8.30;;;10.40;99.90;;;;;;5051823;28;20203;-73
2024/03/16 05:41:40;;;;;;;10.73;8.43;;;10.40;99.90;;;;;;5052836;28;20218;-73
2024/03/16 05:44:06;;;;;;;13.37;9.40;;;10.50;99.90;;;;;;5052568;28;20193;-73
2024/03/16 05:49:07;;;;;;;9.77;8.77;;;10.50;99.90;;;;;;5685730;23;20226;-74
2024/03/16 05:51:32;;;;;;;14.50;9.97;;;10.60;99.90;;;;;;5053083;28;20175;-74
2024/03/16 05:53:59;;;;;;;11.40;9.60;;;10.60;99.90;;;;;;5052649;28;20548;-74
2024/03/16 05:56:25;;;;;;;9.50;8.43;;;10.50;99.90;;;;;;5052656;28;20202;-75
2024/03/16 05:58:50;;;;;;;10.23;8.57;;;10.50;99.90;;;;;;5052991;28;20171;-75
2024/03/16 06:01:16;;;;;;;11.97;8.80;;;10.50;99.90;;;;;;5052740;28;20526;-75
2024/03/16 06:03:41;;;;;;;12.67;10.27;;;10.50;99.90;;;;;;5052637;28;20170;-74
2024/03/16 06:06:07;;;;;;;16.83;9.60;;;10.50;99.90;;;;;;5053002;28;20175;-76
2024/03/16 06:08:35;;;;;;;13.97;10.50;;;10.50;99.90;;;;;;5053418;28;20213;-75
2024/03/16 06:11:02;;;;;;;13.17;11.00;;;10.50;99.90;;;;;;5053718;28;20209;-76
2024/03/16 06:13:27;;;;;;;17.07;10.57;;;10.50;99.90;;;;;;5054296;28;20245;-76
2024/03/16 06:15:53;;;;;;;14.73;10.57;;;10.60;99.90;;;;;;5054161;28;20199;-76
2024/03/16 06:18:19;;;;;;;14.90;10.07;;;10.50;99.90;;;;;;5054177;28;20183;-74
2024/03/16 06:20:44;;;;;;;13.77;10.47;;;10.50;99.90;;;;;;5053484;28;20167;-75
2024/03/16 06:23:10;;;;;;;17.17;11.67;;;10.40;99.90;;;;;;5054015;28;20303;-77
2024/03/16 06:25:46;;;;;;;14.17;11.43;;;10.20;99.90;;;;;;5054596;28;20744;-75
2024/03/16 06:28:14;;;;;;;15.43;10.10;;;10.20;99.90;;;;;;5054744;28;20479;-76
2024/03/16 06:30:40;;;;;;;12.40;9.60;;;9.90;99.90;;;;;;5054346;28;20171;-75
2024/03/16 06:33:05;;;;;;;12.37;9.73;;;9.80;99.90;;;;;;5053361;28;20175;-75
2024/03/16 06:35:32;;;;;;;8.93;8.03;;;9.70;99.90;;;;;;5053682;28;20167;-76
2024/03/16 06:37:58;;;;;;;8.63;7.73;;;9.50;99.90;;;;;;5053422;28;20241;-74
2024/03/16 06:40:25;;;;;;;8.33;7.17;;;9.40;99.90;;;;;;5053990;28;20182;-75
2024/03/16 06:42:51;;;;;;;12.33;7.40;;;9.30;99.90;;;;;;5052218;28;20178;-74
2024/03/16 06:45:17;;;;;;;8.53;7.43;;;9.20;99.90;;;;;;5054182;28;20182;-76
2024/03/16 06:47:43;;;;;;;10.37;7.90;;;9.10;99.90;;;;;;5053778;28;20702;-76
2024/03/16 06:50:10;;;;;;;10.77;8.13;;;9.20;99.90;;;;;;5054856;28;20194;-75
2024/03/16 06:52:36;;;;;;;10.40;8.47;;;9.20;99.90;;;;;;5053693;28;20175;-75
2024/03/16 06:55:02;;;;;;;11.57;8.83;;;9.10;99.90;;;;;;5053611;28;20182;-74
2024/03/16 06:57:28;;;;;;;11.70;9.60;;;9.10;99.90;;;;;;5051082;28;20286;-75
2024/03/16 06:59:54;;;;;;;10.77;9.67;;;9.20;99.90;;;;;;5053603;28;20257;-73
2024/03/16 07:02:19;;;;;;;10.80;9.53;;;9.20;99.90;;;;;;5052242;28;20207;-75
2024/03/16 07:04:45;;;;;;;16.77;10.40;;;9.20;99.90;;;;;;5052114;28;20179;-74
2024/03/16 07:07:10;;;;;;;15.17;11.87;;;9.20;99.90;;;;;;5052204;28;20191;-75
2024/03/16 07:09:36;;;;;;;18.10;11.67;;;9.20;99.90;;;;;;5051614;28;20563;-75
2024/03/16 07:12:01;;;;;;;17.93;11.77;;;9.20;99.90;;;;;;5052370;28;20245;-74
2024/03/16 07:14:27;;;;;;;14.67;11.13;;;9.30;99.90;;;;;;5051673;28;20218;-74
2024/03/16 07:16:53;;;;;;;17.63;13.20;;;9.30;99.90;;;;;;5051636;28;20310;-74
2024/03/16 07:19:23;;;;;;;17.83;11.80;;;9.40;99.90;;;;;;5052033;28;20171;-74
2024/03/16 07:21:51;;;;;;;13.40;11.53;;;9.40;99.90;;;;;;5050958;28;20213;-76
2024/03/16 07:24:17;;;;;;;17.43;12.07;;;9.50;99.90;;;;;;5051963;28;20592;-76
2024/03/16 07:26:43;;;;;;;13.53;10.53;;;9.60;99.90;;;;;;5051324;28;20861;-75
2024/03/16 07:29:09;;;;;;;13.43;11.10;;;9.60;99.90;;;;;;5051751;28;20225;-74
2024/03/16 07:31:35;;;;;;;19.63;10.50;;;9.50;99.90;;;;;;5049957;28;20209;-76
2024/03/16 07:34:01;;;;;;;13.57;11.20;;;9.50;99.90;;;;;;5051219;28;20691;-74
2024/03/16 07:36:27;;;;;;;13.23;9.97;;;9.50;99.90;;;;;;5052062;28;20212;-73
2024/03/16 07:38:53;;;;;;;15.50;12.03;;;9.50;99.90;;;;;;5051424;28;20402;-75
2024/03/16 07:41:19;;;;;;;12.23;11.03;;;9.50;99.90;;;;;;5051791;28;20171;-75
2024/03/16 07:43:44;;;;;;;12.57;11.23;;;9.50;99.90;;;;;;5051535;28;20214;-75
2024/03/16 07:46:10;;;;;;;13.73;11.70;;;9.50;99.90;;;;;;5050891;28;20174;-75
2024/03/16 07:48:36;;;;;;;13.43;11.43;;;9.50;99.90;;;;;;5050918;28;20210;-74
2024/03/16 07:51:04;;;;;;;17.30;11.00;;;9.50;99.90;;;;;;5051471;28;20174;-73
2024/03/16 07:53:33;;;;;;;12.63;10.50;;;9.50;99.90;;;;;;5050796;28;20534;-73
2024/03/16 07:55:59;;;;;;;13.67;10.77;;;9.50;99.90;;;;;;5050966;28;20252;-75
2024/03/16 07:58:25;;;;;;;9.90;8.90;;;9.50;99.90;;;;;;5049540;28;20663;-75
2024/03/16 08:00:51;;;;;;;12.20;10.50;;;9.40;99.90;;;;;;5049746;28;20170;-75
2024/03/16 08:03:17;;;;;;;15.43;10.63;;;9.40;99.90;;;;;;5050978;28;20661;-75
2024/03/16 08:05:42;;;;;;;16.60;11.47;;;9.40;99.90;;;;;;5054524;28;20175;-74
2024/03/16 08:08:08;;;;;;;13.33;10.20;;;9.40;99.90;;;;;;5054714;28;20249;-75
2024/03/16 08:10:34;;;;;;;12.70;10.10;;;9.50;99.90;;;;;;5055143;28;20231;-73
2024/03/16 08:13:00;;;;;;;10.07;8.80;;;9.50;99.90;;;;;;5053283;28;20205;-74
2024/03/16 08:15:26;;;;;;;14.00;10.50;;;9.70;99.90;;;;;;5059772;28;20179;-74
2024/03/16 08:17:54;;;;;;;11.23;9.83;;;9.80;99.90;;;;;;5042303;28;20330;-75
2024/03/16 08:20:20;;;;;;;12.30;8.53;;;9.90;99.90;;;;;;5056300;28;20175;-74
2024/03/16 08:22:48;;;;;;;11.30;7.30;;;9.90;99.90;;;;;;5056366;28;20556;-75
2024/03/16 08:25:14;;;;;;;7.73;6.80;;;9.90;99.90;;;;;;5054290;28;20190;-76
2024/03/16 08:27:40;;;;;;;7.37;6.67;;;9.90;99.90;;;;;;5053544;28;20234;-76
2024/03/16 08:30:06;;;;;;;12.90;6.47;;;9.80;99.90;;;;;;5054287;28;20179;-75
2024/03/16 08:32:32;;;;;;;6.73;6.10;;;9.90;99.90;;;;;;5054424;28;20635;-74
2024/03/16 08:34:58;;;;;;;5.33;4.93;;;9.90;99.90;;;;;;5053753;28;20590;-74
2024/03/16 08:37:24;;;;;;;6.23;5.70;;;9.80;99.90;;;;;;5054776;28;20213;-75
2024/03/16 08:39:50;;;;;;;7.83;5.40;;;10.00;99.90;;;;;;5054485;28;20178;-74
2024/03/16 08:42:15;;;;;;;4.90;4.40;;;10.30;99.90;;;;;;5054647;28;20186;-77
2024/03/16 08:44:41;;;;;;;5.63;4.43;;;10.40;99.90;;;;;;5053247;28;20181;-76
2024/03/16 08:47:07;;;;;;;5.80;5.20;;;10.40;99.90;;;;;;5053360;28;20206;-77
2024/03/16 08:49:34;;;;;;;5.43;4.93;;;10.40;99.90;;;;;;5054958;28;20198;-75
2024/03/16 08:52:00;;;;;;;4.90;4.33;;;10.40;99.90;;;;;;5053559;28;20643;-76
2024/03/16 08:54:26;;;;;;;5.50;5.10;;;10.20;99.90;;;;;;5054060;28;20198;-75
2024/03/16 08:56:52;;;;;;;4.63;4.23;;;10.00;99.90;;;;;;5052656;28;20209;-73
2024/03/16 08:59:18;;;;;;;6.03;4.70;;;9.90;99.90;;;;;;5053426;28;20182;-74
2024/03/16 09:01:43;;;;;;;5.17;4.67;;;9.90;99.90;;;;;;5054299;28;20647;-76
2024/03/16 09:04:09;;;;;;;4.80;4.30;;;9.90;99.90;;;;;;5052377;28;20255;-74
2024/03/16 09:06:38;;;;;;;5.27;4.37;;;9.90;99.90;;;;;;5053089;28;20640;-75
2024/03/16 09:09:10;;;;;;;4.70;4.30;;;9.90;99.90;;;;;;5054468;28;20171;-73
2024/03/16 09:11:36;;;;;;;7.33;4.27;;;9.80;99.90;;;;;;5053736;28;20186;-74
2024/03/16 09:14:04;;;;;;;7.60;4.13;;;9.80;99.90;;;;;;5054381;28;20182;-74
2024/03/16 09:16:30;;;;;;;4.50;4.10;;;9.80;99.90;;;;;;5053873;28;20274;-75
2024/03/16 09:18:56;;;;;;;4.23;3.83;;;9.80;99.90;;;;;;5052728;28;20262;-73
2024/03/16 09:21:21;;;;;;;3.90;3.70;;;9.80;99.90;;;;;;5054370;28;20171;-73
2024/03/16 09:23:47;;;;;;;5.70;3.80;;;9.80;99.90;;;;;;5052738;28;20521;-74
2024/03/16 09:26:13;;;;;;;4.20;3.90;;;9.90;99.90;;;;;;5052409;28;20583;-74
2024/03/16 09:28:38;;;;;;;4.50;4.00;;;10.00;99.90;;;;;;5055143;28;20281;-74
2024/03/16 09:31:05;;;;;;;3.67;3.37;;;10.10;99.90;;;;;;5053373;28;20205;-72
2024/03/16 09:33:32;;;;;;;4.00;3.60;;;10.10;99.90;;;;;;5052943;28;20267;-74
2024/03/16 09:35:57;;;;;;;4.00;3.70;;;10.20;99.90;;;;;;5053751;28;20206;-75
2024/03/16 09:38:23;;;;;;;4.03;3.40;;;10.40;99.90;;;;;;5053989;28;20197;-73
2024/03/16 09:40:52;;;;;;;8.17;3.70;;;10.50;99.90;;;;;;5038804;28;20183;-73
2024/03/16 09:43:18;;;;;;;3.83;3.23;;;10.60;99.90;;;;;;5040235;28;20182;-74
2024/03/16 09:45:45;;;;;;;3.60;3.30;;;10.60;99.90;;;;;;5057144;28;20631;-75
2024/03/16 09:48:12;;;;;;;7.93;4.90;;;10.70;99.90;;;;;;5053743;28;20222;-74
2024/03/16 09:50:47;;;;;;;3.70;3.40;;;10.70;99.90;;;;;;5054919;28;20163;-74
2024/03/16 09:53:32;;;;;;;4.27;3.90;;;10.60;99.90;;;;;;5054920;28;20177;-75
2024/03/16 09:56:07;;;;;;;3.63;3.30;;;10.40;99.90;;;;;;5053454;28;20335;-74
2024/03/16 09:58:34;;;;;;;3.70;3.40;;;10.20;99.90;;;;;;5054839;28;20201;-75
2024/03/16 10:01:01;;;;;;;4.10;3.73;;;10.10;99.90;;;;;;5054157;28;20240;-75
2024/03/16 10:03:27;;;;;;;3.93;3.43;;;10.00;99.90;;;;;;5052879;28;20179;-75
2024/03/16 10:05:53;;;;;;;6.37;4.03;;;9.90;99.90;;;;;;5052346;28;20175;-75
2024/03/16 10:08:20;;;;;;;4.40;4.00;;;9.70;99.90;;;;;;5053383;28;20359;-75
2024/03/16 10:10:47;;;;;;;4.77;3.90;;;9.60;99.90;;;;;;5053554;28;20187;-74
2024/03/16 10:13:14;;;;;;;7.10;3.93;;;9.50;99.90;;;;;;5054426;28;20228;-74
2024/03/16 10:15:44;;;;;;;5.70;4.07;;;9.60;99.90;;;;;;5053831;28;20174;-74
2024/03/16 10:18:16;;;;;;;4.10;3.70;;;9.60;99.90;;;;;;5052809;28;20191;-74
2024/03/16 10:20:45;;;;;;;4.67;3.90;;;9.60;99.90;;;;;;5053051;28;20175;-74
2024/03/16 10:23:15;;;;;;;4.83;4.20;;;9.70;99.90;;;;;;5051832;28;20726;-74
2024/03/16 10:25:45;;;;;;;3.90;3.70;;;9.90;99.90;;;;;;5051279;28;20174;-75
2024/03/16 10:28:15;;;;;;;5.17;4.13;;;10.10;99.90;;;;;;5051951;28;20187;-74
2024/03/16 10:30:45;;;;;;;5.53;3.93;;;10.20;99.90;;;;;;5051901;28;20674;-75
2024/03/16 10:33:11;;;;;;;6.97;4.20;;;10.20;99.90;;;;;;5050891;28;20723;-74
2024/03/16 10:35:39;;;;;;;3.83;3.37;;;10.40;99.90;;;;;;5051591;28;20531;-73
2024/03/16 10:38:11;;;;;;;3.63;3.03;;;10.30;99.90;;;;;;5051622;28;20197;-74
2024/03/16 10:40:39;;;;;;;4.73;3.60;;;10.00;99.90;;;;;;5050400;28;20220;-75
2024/03/16 10:43:08;;;;;;;3.67;3.37;;;9.80;99.90;;;;;;5052129;28;20253;-72
2024/03/16 10:45:34;;;;;;;5.27;3.27;;;9.70;99.90;;;;;;5051625;28;20640;-75
2024/03/16 10:48:02;;;;;;;3.37;3.17;;;9.50;99.90;;;;;;5051353;28;20209;-74
2024/03/16 10:50:29;;;;;;;6.80;3.43;;;9.40;99.90;;;;;;5051361;28;20175;-73
2024/03/16 10:52:56;;;;;;;4.03;3.63;;;9.30;99.90;;;;;;5049887;28;20284;-75
2024/03/16 10:55:24;;;;;;;3.37;3.07;;;9.30;99.90;;;;;;5051181;28;20209;-74
2024/03/16 10:57:54;;;;;;;3.27;3.07;;;9.30;99.90;;;;;;5051202;28;20271;-74
2024/03/16 11:00:26;;;;;;;3.80;3.47;;;9.40;99.90;;;;;;5051274;28;20174;-74
2024/03/16 11:03:01;;;;;;;3.90;3.50;;;9.50;99.90;;;;;;5051211;28;20167;-74
2024/03/16 11:05:37;;;;;;;3.60;3.30;;;9.60;99.90;;;;;;5049414;28;20174;-74
2024/03/16 11:08:11;;;;;;;3.80;3.40;;;9.70;99.90;;;;;;5049827;28;20252;-74
2024/03/16 11:10:49;;;;;;;4.17;3.43;;;9.90;99.90;;;;;;5049968;28;20175;-73
2024/03/16 11:13:22;;;;;;;3.27;3.07;;;10.10;99.90;;;;;;5051367;28;20177;-75
2024/03/16 11:15:48;;;;;;;4.07;3.37;;;10.20;99.90;;;;;;5052367;28;20171;-75
2024/03/16 11:18:16;;;;;;;3.73;3.43;;;10.40;99.90;;;;;;5052814;28;20239;-74
2024/03/16 11:20:55;;;;;;;3.50;3.10;;;10.60;99.90;;;;;;5051952;28;20170;-75
2024/03/16 11:23:21;;;;;;;4.13;3.80;;;10.90;99.90;;;;;;5051256;28;20194;-73
2024/03/16 11:25:49;;;;;;;3.60;3.30;;;11.20;99.90;;;;;;5050675;28;20209;-74
2024/03/16 11:28:17;;;;;;;3.50;3.20;;;11.30;99.90;;;;;;5052441;28;20600;-75
2024/03/16 11:30:50;;;;;;;3.97;3.10;;;11.40;99.90;;;;;;5051960;28;20186;-75
2024/03/16 11:33:21;;;;;;;5.57;3.40;;;11.20;99.90;;;;;;5051693;28;20195;-73
2024/03/16 11:35:49;;;;;;;3.27;3.00;;;11.10;99.90;;;;;;5049492;28;20217;-74
2024/03/16 11:38:16;;;;;;;5.30;3.10;;;11.10;99.90;;;;;;5053357;28;20202;-75
2024/03/16 11:40:44;;;;;;;4.23;3.17;;;11.10;99.90;;;;;;5053692;28;20183;-75
2024/03/16 11:43:11;;;;;;;3.00;2.80;;;11.10;99.90;;;;;;5055792;28;20228;-74
2024/03/16 11:45:39;;;;;;;5.17;2.70;;;11.20;99.90;;;;;;5054384;28;20190;-72
2024/03/16 11:48:07;;;;;;;3.07;2.87;;;11.10;99.90;;;;;;5055076;28;20197;-70
2024/03/16 11:50:33;;;;;;;3.97;2.90;;;11.00;99.90;;;;;;5055412;28;20232;-73
2024/03/16 11:52:59;;;;;;;3.10;2.90;;;10.90;99.90;;;;;;5053535;28;20178;-74
2024/03/16 11:55:26;;;;;;;3.23;2.90;;;10.90;99.90;;;;;;5053714;28;20182;-74
2024/03/16 11:57:52;;;;;;;3.27;2.70;;;10.80;99.90;;;;;;5055113;28;20214;-72
2024/03/16 12:00:18;;;;;;;3.43;2.90;;;10.80;99.90;;;;;;5053301;28;20265;-72
2024/03/16 12:02:48;;;;;;;3.53;3.10;;;10.80;99.90;;;;;;5054904;28;20661;-74
2024/03/16 12:05:14;;;;;;;3.57;3.23;;;10.80;99.90;;;;;;5054853;28;20167;-73
2024/03/16 12:07:44;;;;;;;3.33;3.00;;;10.90;99.90;;;;;;5055003;28;20195;-74
2024/03/16 12:10:10;;;;;;;3.07;2.87;;;11.00;99.90;;;;;;5053555;28;20182;-74
2024/03/16 12:12:36;;;;;;;3.07;2.87;;;11.20;99.90;;;;;;5054117;28;20179;-73
2024/03/16 12:15:17;;;;;;;3.20;2.90;;;11.30;99.90;;;;;;5053325;28;20190;-73
2024/03/16 12:17:43;;;;;;;3.20;3.00;;;11.40;99.90;;;;;;5054491;28;20293;-75
2024/03/16 12:20:16;;;;;;;3.20;2.90;;;11.50;99.90;;;;;;5054747;28;20170;-75
2024/03/16 12:22:48;;;;;;;2.90;2.70;;;11.80;99.90;;;;;;5053390;28;20175;-74
2024/03/16 12:25:15;;;;;;;2.90;2.70;;;11.90;99.90;;;;;;5053409;28;20171;-75
2024/03/16 12:27:49;;;;;;;3.03;2.83;;;12.10;99.90;;;;;;5054959;28;20593;-74
2024/03/16 12:30:14;;;;;;;3.10;2.90;;;12.20;99.90;;;;;;5054020;28;20182;-74
2024/03/16 12:32:41;;;;;;;3.20;3.00;;;12.20;99.90;;;;;;5054095;28;20182;-73
2024/03/16 12:35:09;;;;;;;3.20;2.90;;;12.10;99.90;;;;;;5055009;28;20520;-75
2024/03/16 12:37:37;;;;;;;3.00;2.80;;;12.00;99.90;;;;;;5055127;28;20253;-73
2024/03/16 12:40:03;;;;;;;3.17;2.97;;;12.00;99.90;;;;;;5055327;28;20186;-74
2024/03/16 12:42:30;;;;;;;3.37;2.93;;;12.00;99.90;;;;;;5054892;28;20201;-74
2024/03/16 12:44:59;;;;;;;3.87;3.07;;;11.90;99.90;;;;;;5054196;28;20182;-74
2024/03/16 12:47:26;;;;;;;2.93;2.80;;;11.80;99.90;;;;;;5054315;28;20195;-73
2024/03/16 12:49:55;;;;;;;4.93;3.10;;;11.70;99.90;;;;;;5053868;28;20191;-74